CW2057 Weather Reports


Display with metric or nautical units.
time (UTC)temp
F
wind
direction
speed
MPH
gust
MPH
rain 1hr
in
rain 24hr
in
rain mn
in
humidity
%
barometer
mb
20210613083028 64 183 0.0 0.0 0.00 0.06 0.00 92 1012.4
20210613081531 64 186 0.0 1.0 0.00 0.06 0.00 92 1012.3
20210613080037 64 179 0.0 5.0 0.00 0.06 0.00 92 1012.2
20210613074539 64 26 0.0 0.0 0.00 0.06 0.00 91 1012.1
20210613073037 64 26 0.0 0.0 0.00 0.06 0.00 91 1012.3
20210613071539 64 26 0.0 0.0 0.00 0.06 0.00 90 1012.6
20210613070025 64 26 0.0 0.0 0.00 0.06 0.00 90 1012.5
20210613064527 65 26 0.0 0.0 0.00 0.06 0.00 89 1012.5
20210613063033 65 26 0.0 0.0 0.00 0.06 0.00 89 1012.4
20210613061535 65 26 0.0 0.0 0.00 0.06 0.00 89 1012.5
20210613060038 65 26 0.0 0.0 0.00 0.06 0.00 89 1012.5
20210613054536 65 26 0.0 0.0 0.00 0.07 0.00 90 1012.6
20210613053022 65 26 0.0 0.0 0.00 0.07 0.00 89 1012.3
20210613051525 65 26 0.0 0.0 0.00 0.07 0.00 89 1012.4
20210613050029 65 26 0.0 0.0 0.00 0.07 0.00 88 1012.5
20210613044529 65 26 0.0 0.0 0.00 0.07 0.00 87 1012.5
20210613043035 65 26 0.0 0.0 0.00 0.07 0.00 86 1012.5
20210613041537 66 26 0.0 0.0 0.00 0.07 0.00 85 1012.4
20210613040041 66 26 0.0 0.0 0.00 0.07 0.00 85 1012.3
20210613034535 67 26 0.0 0.0 0.00 0.08 0.07 84 1012.3
20210613033039 67 26 0.0 0.0 0.00 0.08 0.07 82 1012.3
20210613031538 67 26 0.0 0.0 0.00 0.08 0.07 81 1012.2
20210613030041 68 26 0.0 0.0 0.00 0.08 0.07 80 1012.2
20210613024523 68 26 0.0 0.0 0.00 0.08 0.07 78 1012.3
20210613023026 69 26 0.0 0.0 0.00 0.08 0.07 77 1011.9
20210613021525 69 26 0.0 0.0 0.00 0.08 0.07 77 1011.9
20210613020031 70 26 0.0 0.0 0.00 0.08 0.07 74 1011.7
20210613014533 71 26 0.0 0.0 0.00 0.09 0.07 74 1011.3
20210613013035 72 26 0.0 0.0 0.01 0.09 0.07 75 1011.2
20210613011537 73 26 0.0 0.0 0.01 0.09 0.07 78 1011.2
20210613010022 73 26 0.0 0.0 0.01 0.09 0.07 77 1011.1
20210613004524 74 26 0.0 0.0 0.01 0.10 0.07 76 1011.2
20210613003026 74 26 0.0 0.0 0.00 0.09 0.06 75 1011.4
20210613001529 74 26 0.0 0.0 0.00 0.09 0.06 75 1011.3
20210613000035 74 26 0.0 0.0 0.00 0.09 0.06 74 1011.3
20210612234537 76 309 0.0 0.0 0.00 0.09 0.06 73 1011.2
20210612233042 77 297 1.0 7.0 0.00 0.09 0.06 69 1011.1
20210612231524 79 240 1.0 3.0 0.00 0.09 0.06 65 1010.9
20210612230029 79 28 0.0 0.0 0.00 0.09 0.06 64 1010.5
20210612224527 79 28 0.0 3.0 0.00 0.10 0.06 61 1010.3
20210612223033 80 27 0.0 3.0 0.01 0.10 0.06 60 1010.1
20210612221535 84 229 0.0 0.0 0.01 0.10 0.06 53 1009.9
20210612220033 84 228 0.0 2.0 0.01 0.10 0.06 54 1009.8
20210612214535 83 198 1.0 3.0 0.01 0.11 0.06 55 1009.7
20210612213040 81 226 0.0 6.0 0.00 0.10 0.05 61 1009.7
20210612211541 78 48 0.0 3.0 0.00 0.10 0.05 64 1009.9
20210612210022 78 333 0.0 0.0 0.00 0.10 0.05 66 1010.4
20210612204524 78 309 0.0 0.0 0.00 0.11 0.05 64 1010.4
20210612203030 77 322 0.0 0.0 0.00 0.11 0.05 66 1010.5
20210612201533 76 336 0.0 0.0 0.00 0.11 0.05 67 1010.8
20210612200036 76 301 0.0 0.0 0.00 0.11 0.05 69 1010.9
20210612194538 75 51 0.0 0.0 0.00 0.12 0.05 72 1011.0
20210612193023 75 53 0.0 0.0 0.00 0.12 0.05 71 1010.9
20210612191539 75 42 0.0 4.0 0.01 0.12 0.05 71 1011.0
20210612190023 75 44 0.0 0.0 0.01 0.12 0.05 74 1011.1
20210612184526 73 305 0.0 0.0 0.01 0.14 0.05 77 1011.3
20210612183031 72 355 0.0 0.0 0.01 0.14 0.05 79 1011.4
20210612181532 72 340 0.0 2.0 0.00 0.13 0.04 79 1011.4
20210612180038 72 298 1.0 3.0 0.00 0.13 0.04 80 1011.3
20210612174540 71 26 0.0 0.0 0.00 0.15 0.04 82 1011.5
20210612173022 71 25 0.0 0.0 0.00 0.15 0.04 82 1011.6
20210612171524 71 22 1.0 3.0 0.00 0.15 0.04 82 1011.5
20210612170029 70 20 0.0 3.0 0.00 0.15 0.04 83 1011.7
20210612164532 70 307 1.0 3.0 0.00 0.17 0.04 83 1011.5
20210612163037 68 319 2.0 3.0 0.01 0.17 0.04 86 1011.6
20210612161540 68 54 0.0 3.0 0.01 0.17 0.04 87 1011.5
20210612160042 68 37 1.0 4.0 0.01 0.17 0.04 87 1011.4
20210612154539 68 78 0.0 2.0 0.01 0.19 0.04 85 1011.4
20210612153023 67 59 0.0 0.0 0.00 0.18 0.03 87 1011.2
20210612151523 66 34 0.0 0.0 0.00 0.18 0.03 91 1011.1
20210612150029 65 44 0.0 1.0 0.00 0.18 0.03 94 1011.0
20210612144527 64 40 0.0 0.0 0.00 0.20 0.03 95 1011.0
20210612143033 63 76 0.0 0.0 0.00 0.20 0.03 95 1010.9
20210612141535 63 40 0.0 3.0 0.00 0.20 0.03 96 1010.9
20210612140033 62 61 0.0 0.0 0.00 0.20 0.03 96 1011.0
20210612134535 62 74 0.0 1.0 0.00 0.23 0.03 96 1010.9
20210612133039 62 32 0.0 0.0 0.00 0.23 0.03 96 1010.9
20210612131521 62 44 0.0 1.0 0.00 0.23 0.03 96 1010.7
20210612130025 61 38 0.0 2.0 0.00 0.23 0.03 96 1010.6
20210612124541 61 42 0.0 0.0 0.00 0.25 0.03 96 1010.5
20210612123025 61 360 0.0 0.0 0.00 0.25 0.03 96 1010.3
20210612121523 61 57 0.0 5.0 0.00 0.25 0.03 96 1010.2
20210612120028 61 53 0.0 1.0 0.00 0.25 0.03 96 1010.2
20210612114530 61 43 0.0 3.0 0.01 0.27 0.03 96 1010.1
20210612113032 61 38 0.0 0.0 0.01 0.27 0.03 96 1009.9
20210612111535 61 35 0.0 0.0 0.01 0.27 0.03 96 1009.9
20210612110041 61 31 0.0 0.0 0.00 0.26 0.02 96 1009.7
20210612104521 61 26 0.0 0.0 0.00 0.27 0.02 96 1009.4
20210612103022 61 38 0.0 0.0 0.00 0.27 0.02 96 1009.3
20210612101525 61 38 0.0 0.0 0.00 0.27 0.02 96 1009.3
20210612100030 61 38 0.0 0.0 0.00 0.27 0.02 96 1009.4
20210612094532 61 36 0.0 0.0 0.00 0.31 0.02 96 1009.6
20210612093035 61 71 0.0 0.0 0.00 0.31 0.02 96 1009.6
20210612091537 61 69 0.0 0.0 0.00 0.31 0.02 96 1009.6
20210612090035 61 42 0.0 0.0 0.01 0.31 0.02 96 1009.5
20210612084534 61 80 0.0 0.0 0.01 0.33 0.02 96 1009.5